Aeroporto :
LOGIN :

Iscrizione | Disclaimer

   EN    FR    IT 

 










Sommario :    VFR   VFR Marginale   IFR   IFR Intensivo   IFR Molto Intensivo
Visibilità : 
Base nubi : 
>= 8 km
>= 3000ft
5 / 8 km
1000 / 3000 ft
1500m / 5 km
500 / 1000 ft
800 / 1500m
200 / 500 ft
< 800m
< 200 ft
Simboli :   Temporali  Nebbia  Neve Forte  Precipitazioni Forti  Vento > 20 kt
SIGMETs :   Varie  Temporali  Ghiacco  Turbolenza  Onda orograficha  Ceneri Vulcaniche







- Altitudine del aeroporto : 13 ft
- Codice IATA : LYX
- Carte del aeroporto


EGMD - Lydd

ULTIMO METAR :
  • 260620Z AUTO 22014KT 9999 NCD 11/09 Q1010

METARs OBSOLETI :
  • 260550Z AUTO 23012KT 9999 FEW012/// SCT035/// 11/09 Q1010
  • 260520Z AUTO 22009KT 9999 FEW039/// BKN046/// 10/09 Q1009
  • 260450Z AUTO 23009KT 9999 SCT047/// 10/09 Q1009
  • 260420Z AUTO 24006KT 9999 FEW013/// 09/08 Q1009
  • 260350Z AUTO 23008KT 9999 NCD 09/09 Q1009
  • 260320Z AUTO 22008KT 9999 NCD 09/08 Q1008

TAF TAF EGMD
Valido dal 26 a 06 ore il 26 a 15 ore UTC


260458Z 2606/2615 20014KT 9999 SCT045
PROB30
TEMPO 2606/2609 21015G25KT 7000 -SHRA BKN012
PROB30
TEMPO 2609/2615 6000 SHRA BKN014CB
ATIS : +44 1797 322 422
Nessun NOTAM noto per questo aeroporto.



MetMap, La meteo Aeronautica in un colpo d'occhio ! - Copyright ORBIFLY Dicembre 2007 - Disclaimer

ORBIFLY MET'MAP TEAM :

Programmazione e sviluppo : Alexandra Zaïnal
Concezione e sviluppo : Baudouin d'Aumeries
Co-Programmazione e sviluppo : Marc-Olivier Méhu
Supporto tecnico e logistico : Manuel Goepfert
Aiuto per la traduzione : Arnaldo La Scala

Contatto : metmap@orbifly.com




FONTI E CREDITI :

   NOAA